createdAt,value
2023-03-22T00:00:01.812Z,100957.94
2023-03-22T00:00:33.832Z,100954.34
2023-03-22T00:01:11.339Z,100966.09
2023-03-22T00:01:43.196Z,100960.66
2023-03-22T00:02:14.859Z,100954.44
2023-03-22T00:02:46.457Z,100954.44
2023-03-22T00:03:17.926Z,100958.22
2023-03-22T00:03:50.846Z,100956.34
2023-03-22T00:04:23.077Z,100957.88
2023-03-22T00:04:54.558Z,100957.81
2023-03-22T00:05:26.267Z,100952.38
2023-03-22T00:05:58.360Z,100953.09
2023-03-22T00:06:29.755Z,100952.38
2023-03-22T00:07:01.362Z,100953.16
2023-03-22T00:07:32.810Z,100953.50
2023-03-22T00:08:07.176Z,100954.28
2023-03-22T00:08:38.975Z,100951.94
2023-03-22T00:09:10.392Z,100946.06
2023-03-22T00:09:41.865Z,100948.00
2023-03-22T00:10:13.267Z,100950.38
2023-03-22T00:10:47.831Z,100951.09
2023-03-22T00:11:21.376Z,100948.38
2023-03-22T00:11:52.917Z,100938.63
2023-03-22T00:12:24.396Z,100942.50
2023-03-22T00:12:56.107Z,100946.78
2023-03-22T00:13:27.745Z,100944.06
2023-03-22T00:13:59.721Z,100949.16
2023-03-22T00:14:31.233Z,100946.78
2023-03-22T00:15:02.853Z,100951.09
2023-03-22T00:15:34.818Z,100942.94
2023-03-22T00:16:06.815Z,100945.59
2023-03-22T00:16:38.287Z,100944.44
2023-03-22T00:17:09.683Z,100941.72
2023-03-22T00:17:42.096Z,100942.47
2023-03-22T00:18:14.423Z,100938.16
2023-03-22T00:18:46.279Z,100934.66
2023-03-22T00:19:17.897Z,100945.97
2023-03-22T00:19:49.337Z,100942.03
2023-03-22T00:20:39.383Z,100943.59
2023-03-22T00:21:14.234Z,100934.25
2023-03-22T00:21:46.374Z,100937.75
2023-03-22T00:22:17.746Z,100934.25
2023-03-22T00:22:50.565Z,100941.31
2023-03-22T00:23:22.837Z,100935.81
2023-03-22T00:23:54.287Z,100936.59
2023-03-22T00:24:25.915Z,100937.81
2023-03-22T00:24:57.343Z,100927.66
2023-03-22T00:25:28.744Z,100926.88
2023-03-22T00:26:00.210Z,100927.66
2023-03-22T00:26:31.787Z,100922.16
2023-03-22T00:27:04.009Z,100924.94
2023-03-22T00:27:36.133Z,100929.22
2023-03-22T00:28:07.729Z,100927.66
2023-03-22T00:28:39.374Z,100934.66
2023-03-22T00:29:10.836Z,100927.22
2023-03-22T00:29:42.558Z,100921.00
2023-03-22T00:30:14.365Z,100929.59
2023-03-22T00:30:57.653Z,100924.16
2023-03-22T00:31:29.093Z,100925.28
2023-03-22T00:32:00.720Z,100920.22
2023-03-22T00:32:38.380Z,100924.16
2023-03-22T00:33:09.840Z,100924.50
2023-03-22T00:33:41.638Z,100924.09
2023-03-22T00:34:13.006Z,100921.38
2023-03-22T00:34:44.518Z,100918.66
2023-03-22T00:35:15.919Z,100915.50
2023-03-22T00:35:55.452Z,100923.28
2023-03-22T00:36:26.876Z,100922.88
2023-03-22T00:36:58.432Z,100922.50
2023-03-22T00:37:34.166Z,100920.94
2023-03-22T00:38:14.207Z,100922.88
2023-03-22T00:38:46.013Z,100923.22
2023-03-22T00:39:17.458Z,100930.25
2023-03-22T00:39:48.854Z,100922.44
2023-03-22T00:40:20.677Z,100923.22
2023-03-22T00:40:52.083Z,100929.44
2023-03-22T00:41:24.232Z,100920.09
2023-03-22T00:41:56.033Z,100913.88
2023-03-22T00:42:27.501Z,100919.38
2023-03-22T00:42:59.137Z,100919.31
2023-03-22T00:43:30.682Z,100927.09
2023-03-22T00:44:02.201Z,100913.06
2023-03-22T00:44:33.793Z,100924.00
2023-03-22T00:45:07.521Z,100915.44
2023-03-22T00:45:40.894Z,100914.28
2023-03-22T00:46:14.950Z,100916.59
2023-03-22T00:46:46.379Z,100918.59
2023-03-22T00:47:17.900Z,100915.44
2023-03-22T00:47:49.375Z,100917.38
2023-03-22T00:48:20.924Z,100914.28
2023-03-22T00:48:52.478Z,100919.72
2023-03-22T00:49:25.509Z,100916.22
2023-03-22T00:49:56.942Z,100914.66
2023-03-22T00:50:28.462Z,100917.38
2023-03-22T00:51:00.105Z,100910.34
2023-03-22T00:51:31.676Z,100909.22
2023-03-22T00:52:03.457Z,100920.88
2023-03-22T00:52:34.847Z,100904.91
2023-03-22T00:53:06.357Z,100906.06
2023-03-22T00:53:42.376Z,100904.88
2023-03-22T00:54:14.454Z,100899.44
2023-03-22T00:54:45.904Z,100910.31
2023-03-22T00:55:17.563Z,100905.25
2023-03-22T00:55:49.183Z,100902.53
2023-03-22T00:56:23.142Z,100906.03
2023-03-22T00:56:54.494Z,100895.16
2023-03-22T00:57:25.993Z,100899.03
2023-03-22T00:57:57.718Z,100903.31
2023-03-22T00:58:29.250Z,100904.47
2023-03-22T00:59:00.762Z,100903.66
2023-03-22T00:59:32.194Z,100891.94
2023-03-22T01:00:13.879Z,100899.38
2023-03-22T01:00:45.656Z,100897.44
2023-03-22T01:01:17.248Z,100898.59
2023-03-22T01:01:48.767Z,100897.38
2023-03-22T01:02:20.147Z,100892.31
2023-03-22T01:02:53.414Z,100900.53
2023-03-22T01:03:25.413Z,100898.22
2023-03-22T01:03:56.924Z,100895.88
2023-03-22T01:04:28.332Z,100895.09
2023-03-22T01:04:59.965Z,100893.94
2023-03-22T01:05:33.215Z,100900.53
2023-03-22T01:06:04.791Z,100896.22
2023-03-22T01:06:36.282Z,100890.38
2023-03-22T01:07:07.900Z,100884.94
2023-03-22T01:07:41.591Z,100890.81
2023-03-22T01:08:14.834Z,100881.84
2023-03-22T01:08:46.580Z,100886.44
2023-03-22T01:09:18.718Z,100882.56
2023-03-22T01:09:53.142Z,100883.78
2023-03-22T01:10:24.607Z,100881.06
2023-03-22T01:10:55.996Z,100871.72
2023-03-22T01:11:28.036Z,100874.06
2023-03-22T01:12:01.497Z,100880.66
2023-03-22T01:12:33.104Z,100873.63
2023-03-22T01:13:05.554Z,100874.06
2023-03-22T01:13:37.818Z,100867.41
2023-03-22T01:14:09.694Z,100869.78
2023-03-22T01:14:41.163Z,100864.69
2023-03-22T01:15:12.901Z,100868.56
2023-03-22T01:15:44.853Z,100863.56
2023-03-22T01:16:17.686Z,100864.34
2023-03-22T01:16:49.181Z,100864.34
2023-03-22T01:17:20.796Z,100861.25
2023-03-22T01:17:52.516Z,100861.19
2023-03-22T01:18:24.621Z,100864.34
2023-03-22T01:18:56.081Z,100867.06
2023-03-22T01:19:27.873Z,100861.97
2023-03-22T01:19:59.224Z,100863.13
2023-03-22T01:20:30.691Z,100860.06
2023-03-22T01:21:02.510Z,100857.69
2023-03-22T01:21:33.930Z,100856.53
2023-03-22T01:22:06.083Z,100860.41
2023-03-22T01:22:37.520Z,100855.75
2023-03-22T01:23:09.308Z,100864.69
2023-03-22T01:23:40.809Z,100852.63
2023-03-22T01:24:12.218Z,100854.53
2023-03-22T01:24:43.683Z,100850.63
2023-03-22T01:25:15.509Z,100854.13
2023-03-22T01:25:46.854Z,100854.91
2023-03-22T01:26:18.264Z,100855.34
2023-03-22T01:26:49.662Z,100850.25
2023-03-22T01:27:21.096Z,100852.97
2023-03-22T01:27:52.706Z,100848.75
2023-03-22T01:28:26.947Z,100842.47
2023-03-22T01:28:58.685Z,100851.47
2023-03-22T01:29:31.491Z,100844.47
2023-03-22T01:30:03.792Z,100846.81
2023-03-22T01:30:35.562Z,100838.59
2023-03-22T01:31:07.436Z,100839.03
2023-03-22T01:31:38.856Z,100846.03
2023-03-22T01:32:10.292Z,100839.03
2023-03-22T01:32:42.243Z,100842.16
2023-03-22T01:33:13.701Z,100833.94
2023-03-22T01:33:45.129Z,100839.03
2023-03-22T01:34:16.948Z,100845.25
2023-03-22T01:34:48.456Z,100831.97
2023-03-22T01:35:20.362Z,100833.88
2023-03-22T01:35:51.926Z,100837.81
2023-03-22T01:36:23.368Z,100835.47
2023-03-22T01:36:54.771Z,100835.81
2023-03-22T01:37:27.601Z,100835.03
2023-03-22T01:37:59.030Z,100833.09
2023-03-22T01:38:30.693Z,100836.59
2023-03-22T01:39:03.137Z,100832.75
2023-03-22T01:39:34.583Z,100826.88
2023-03-22T01:40:06.824Z,100827.28
2023-03-22T01:40:39.520Z,100830.03
2023-03-22T01:41:11.168Z,100822.63
2023-03-22T01:41:42.645Z,100823.78
2023-03-22T01:42:16.365Z,100814.84
2023-03-22T01:42:47.918Z,100819.91
2023-03-22T01:43:19.684Z,100821.44
2023-03-22T01:44:17.727Z,100826.53
2023-03-22T01:45:13.948Z,100824.94
2023-03-22T01:45:52.978Z,100826.13
2023-03-22T01:46:25.720Z,100821.06
2023-03-22T01:46:57.304Z,100821.06
2023-03-22T01:47:28.836Z,100818.34
2023-03-22T01:48:14.556Z,100821.06
2023-03-22T01:48:46.525Z,100815.63
2023-03-22T01:49:26.065Z,100810.97
2023-03-22T01:49:57.635Z,100814.47
2023-03-22T01:50:30.172Z,100806.31
2023-03-22T01:51:10.320Z,100807.84
2023-03-22T01:51:45.185Z,100807.81
2023-03-22T01:52:16.807Z,100806.31
2023-03-22T01:52:50.693Z,100811.75
2023-03-22T01:53:25.480Z,100804.75
2023-03-22T01:54:02.449Z,100805.88
2023-03-22T01:54:40.701Z,100807.84
2023-03-22T01:55:13.091Z,100800.81
2023-03-22T01:55:45.820Z,100803.19
2023-03-22T01:56:23.823Z,100794.59
2023-03-22T01:56:56.029Z,100793.81
2023-03-22T01:57:27.591Z,100796.53
2023-03-22T01:58:00.841Z,100798.09
2023-03-22T01:58:36.101Z,100800.09
2023-03-22T01:59:12.052Z,100795.44
2023-03-22T01:59:45.011Z,100791.94
2023-03-22T02:00:18.959Z,100787.66
2023-03-22T02:00:52.434Z,100784.16
2023-03-22T02:01:25.042Z,100780.66
2023-03-22T02:02:00.037Z,100790.00
2023-03-22T02:02:31.598Z,100789.22
2023-03-22T02:03:04.978Z,100784.56
2023-03-22T02:04:15.560Z,100785.38
2023-03-22T02:04:50.816Z,100783.00
2023-03-22T02:05:22.588Z,100780.28
2023-03-22T02:05:54.243Z,100788.44
2023-03-22T02:06:26.960Z,100781.44
2023-03-22T02:06:58.786Z,100785.72
2023-03-22T02:07:31.729Z,100782.22
2023-03-22T02:08:04.515Z,100773.28
2023-03-22T02:08:35.907Z,100765.50
2023-03-22T02:09:11.109Z,100769.78
2023-03-22T02:09:42.796Z,100765.13
2023-03-22T02:10:17.827Z,100771.34
2023-03-22T02:10:49.280Z,100763.19
2023-03-22T02:11:30.833Z,100768.22
2023-03-22T02:12:05.273Z,100770.22
2023-03-22T02:13:03.414Z,100769.41
2023-03-22T02:13:52.351Z,100772.94
2023-03-22T02:14:34.451Z,100760.13
2023-03-22T02:15:29.835Z,100763.56
2023-03-22T02:16:19.859Z,100770.56
2023-03-22T02:17:15.412Z,100766.28
2023-03-22T02:17:51.311Z,100763.19
2023-03-22T02:18:44.485Z,100765.91
2023-03-22T02:19:47.316Z,100759.69
2023-03-22T02:20:32.808Z,100758.13
2023-03-22T02:21:22.653Z,100751.91
2023-03-22T02:22:28.258Z,100756.56
2023-03-22T02:23:25.629Z,100756.56
2023-03-22T02:24:32.892Z,100759.28
2023-03-22T02:25:17.525Z,100749.56
2023-03-22T02:26:26.790Z,100751.50
2023-03-22T02:27:23.013Z,100755.00
2023-03-22T02:28:22.018Z,100755.00
2023-03-22T02:29:16.216Z,100746.41
2023-03-22T02:29:59.414Z,100746.41
2023-03-22T02:30:33.631Z,100747.97
2023-03-22T02:31:35.958Z,100743.69
2023-03-22T02:32:38.170Z,100746.41
2023-03-22T02:33:26.342Z,100743.69
2023-03-22T02:34:09.931Z,100742.13
2023-03-22T02:35:10.735Z,100735.53
2023-03-22T02:35:51.924Z,100744.47
2023-03-22T02:36:35.334Z,100732.41
2023-03-22T02:37:42.227Z,100730.91
2023-03-22T02:38:54.469Z,100731.25
2023-03-22T02:39:36.031Z,100734.75
2023-03-22T02:40:43.969Z,100730.13
2023-03-22T02:41:47.309Z,100725.81
2023-03-22T02:42:44.187Z,100729.31
2023-03-22T02:43:40.635Z,100721.97
2023-03-22T02:44:40.249Z,100717.69
2023-03-22T02:45:27.704Z,100728.53
2023-03-22T02:46:22.798Z,100718.81
2023-03-22T02:47:02.239Z,100712.25
2023-03-22T02:47:49.403Z,100715.31
2023-03-22T02:48:44.508Z,100712.25
2023-03-22T02:49:26.336Z,100719.25
2023-03-22T02:50:30.853Z,100713.03
2023-03-22T02:51:15.278Z,100712.25
2023-03-22T02:51:58.433Z,100713.81
2023-03-22T02:52:42.879Z,100714.97
2023-03-22T02:53:35.277Z,100709.94
2023-03-22T02:54:21.062Z,100709.94
2023-03-22T02:55:05.988Z,100699.06
2023-03-22T02:55:55.084Z,100706.88
2023-03-22T02:56:34.737Z,100702.56
2023-03-22T02:57:15.832Z,100701.78
2023-03-22T02:58:08.947Z,100706.88
2023-03-22T02:58:51.328Z,100703.00
2023-03-22T02:59:25.462Z,100696.78
2023-03-22T03:00:00.133Z,100710.78
2023-03-22T03:00:33.382Z,100699.13
2023-03-22T03:01:12.090Z,100705.34
2023-03-22T03:01:51.484Z,100703.78
2023-03-22T03:02:24.985Z,100696.00
2023-03-22T03:03:02.175Z,100697.19
2023-03-22T03:03:37.591Z,100693.69
2023-03-22T03:04:14.321Z,100694.84
2023-03-22T03:04:49.711Z,100702.28
2023-03-22T03:05:22.971Z,100698.78
2023-03-22T03:05:58.036Z,100689.84
2023-03-22T03:06:35.770Z,100687.47
2023-03-22T03:07:12.015Z,100693.72
2023-03-22T03:07:46.946Z,100690.25
2023-03-22T03:08:20.320Z,100686.75
2023-03-22T03:08:54.323Z,100684.75
2023-03-22T03:09:26.345Z,100688.28
2023-03-22T03:09:58.569Z,100690.25
2023-03-22T03:10:30.379Z,100692.97
2023-03-22T03:11:01.823Z,100689.88
2023-03-22T03:11:33.838Z,100689.06
2023-03-22T03:12:14.247Z,100695.28
2023-03-22T03:12:46.121Z,100691.00
2023-03-22T03:13:18.791Z,100690.28
2023-03-22T03:13:50.783Z,100690.28
2023-03-22T03:14:30.161Z,100691.84
2023-03-22T03:15:01.633Z,100684.84
2023-03-22T03:15:33.192Z,100691.06
2023-03-22T03:16:07.785Z,100688.34
2023-03-22T03:16:40.279Z,100687.56
2023-03-22T03:17:30.357Z,100688.78
2023-03-22T03:18:23.247Z,100696.13
2023-03-22T03:19:11.549Z,100688.78
2023-03-22T03:20:01.017Z,100691.13
2023-03-22T03:20:49.386Z,100692.28
2023-03-22T03:21:32.577Z,100688.78
2023-03-22T03:22:13.214Z,100689.97
2023-03-22T03:23:00.263Z,100689.97
2023-03-22T03:23:47.012Z,100688.41
2023-03-22T03:24:21.184Z,100692.31
2023-03-22T03:25:06.007Z,100689.97
2023-03-22T03:25:46.186Z,100700.47
2023-03-22T03:26:35.518Z,100701.25
2023-03-22T03:27:28.331Z,100694.25
2023-03-22T03:28:11.446Z,100697.75
2023-03-22T03:29:19.591Z,100700.13
2023-03-22T03:30:01.179Z,100704.41
2023-03-22T03:30:43.186Z,100698.53
2023-03-22T03:31:27.100Z,100702.41
2023-03-22T03:32:11.634Z,100699.34
2023-03-22T03:33:00.593Z,100695.03
2023-03-22T03:33:36.080Z,100690.75
2023-03-22T03:34:26.154Z,100691.53
2023-03-22T03:35:04.818Z,100701.25
2023-03-22T03:36:05.153Z,100696.25
2023-03-22T03:36:42.639Z,100695.47
2023-03-22T03:37:19.806Z,100692.75
2023-03-22T03:38:01.368Z,100693.13
2023-03-22T03:38:38.385Z,100695.09
2023-03-22T03:39:14.516Z,100700.13
2023-03-22T03:39:54.628Z,100689.25
2023-03-22T03:40:31.422Z,100696.69
2023-03-22T03:41:13.798Z,100695.47
2023-03-22T03:41:48.605Z,100695.88
2023-03-22T03:42:23.580Z,100693.16
2023-03-22T03:42:58.902Z,100691.22
2023-03-22T03:43:31.619Z,100690.81
2023-03-22T03:44:04.087Z,100694.75
2023-03-22T03:44:36.583Z,100681.88
2023-03-22T03:45:09.248Z,100679.16
2023-03-22T03:45:40.948Z,100689.31
2023-03-22T03:46:12.878Z,100688.09
2023-03-22T03:46:45.943Z,100693.53
2023-03-22T03:47:18.958Z,100688.53
2023-03-22T03:47:56.938Z,100683.13
2023-03-22T03:48:31.694Z,100687.00
2023-03-22T03:49:05.087Z,100686.22
2023-03-22T03:49:36.928Z,100687.00
2023-03-22T03:50:09.036Z,100692.44
2023-03-22T03:50:42.228Z,100688.56
2023-03-22T03:51:13.926Z,100683.13
2023-03-22T03:51:47.661Z,100687.38
2023-03-22T03:52:19.321Z,100686.22
2023-03-22T03:52:52.405Z,100695.19
2023-03-22T03:53:24.250Z,100681.56
2023-03-22T03:53:55.706Z,100689.34
2023-03-22T03:54:27.212Z,100684.31
2023-03-22T03:54:58.660Z,100683.16
2023-03-22T03:55:31.630Z,100679.28
2023-03-22T03:56:03.252Z,100677.72
2023-03-22T03:56:34.696Z,100686.31
2023-03-22T03:57:06.080Z,100678.94
2023-03-22T03:57:37.498Z,100680.88
2023-03-22T03:58:09.545Z,100679.72
2023-03-22T03:58:41.045Z,100678.94
2023-03-22T03:59:12.520Z,100685.16
2023-03-22T03:59:43.928Z,100671.13
2023-03-22T04:00:15.945Z,100668.41
2023-03-22T04:00:50.920Z,100670.78
2023-03-22T04:01:24.021Z,100680.06
2023-03-22T04:01:55.554Z,100679.34
2023-03-22T04:02:27.230Z,100675.47
2023-03-22T04:02:58.692Z,100676.25
2023-03-22T04:03:31.539Z,100678.97
2023-03-22T04:04:03.081Z,100675.84
2023-03-22T04:04:34.813Z,100673.13
2023-03-22T04:05:07.997Z,100683.28
2023-03-22T04:05:39.980Z,100690.28
2023-03-22T04:06:11.392Z,100682.47
2023-03-22T04:06:42.895Z,100685.56
2023-03-22T04:07:14.388Z,100684.00
2023-03-22T04:07:46.021Z,100683.63
2023-03-22T04:08:17.626Z,100679.75
2023-03-22T04:08:53.468Z,100673.91
2023-03-22T04:09:36.566Z,100680.97
2023-03-22T04:10:08.737Z,100686.41
2023-03-22T04:10:40.682Z,100685.63
2023-03-22T04:11:12.510Z,100687.19
2023-03-22T04:11:43.917Z,100684.84
2023-03-22T04:12:15.389Z,100687.13
2023-03-22T04:12:46.786Z,100687.97
2023-03-22T04:13:21.476Z,100682.53
2023-03-22T04:13:52.878Z,100677.88
2023-03-22T04:14:25.598Z,100684.09
2023-03-22T04:14:57.012Z,100673.59
2023-03-22T04:15:28.566Z,100687.59
2023-03-22T04:16:02.225Z,100684.09
2023-03-22T04:16:33.930Z,100676.31
2023-03-22T04:17:05.385Z,100680.25
2023-03-22T04:17:37.733Z,100677.88
2023-03-22T04:18:11.261Z,100677.16
2023-03-22T04:18:42.728Z,100679.44
2023-03-22T04:19:14.882Z,100674.44
2023-03-22T04:19:46.972Z,100675.59
2023-03-22T04:20:19.447Z,100677.94
2023-03-22T04:20:53.508Z,100678.34
2023-03-22T04:21:25.405Z,100675.63
2023-03-22T04:21:56.914Z,100674.44
2023-03-22T04:22:28.417Z,100675.22
2023-03-22T04:23:00.448Z,100674.81
2023-03-22T04:23:33.143Z,100676.78
2023-03-22T04:24:05.017Z,100681.84
2023-03-22T04:24:37.875Z,100667.06
2023-03-22T04:25:13.431Z,100671.72
2023-03-22T04:25:50.541Z,100669.41
2023-03-22T04:26:22.835Z,100666.28
2023-03-22T04:26:55.131Z,100666.28
2023-03-22T04:27:26.838Z,100663.22
2023-03-22T04:28:00.511Z,100662.44
2023-03-22T04:28:33.794Z,100657.78
2023-03-22T04:29:05.337Z,100665.97
2023-03-22T04:29:36.768Z,100659.34
2023-03-22T04:30:11.008Z,100657.81
2023-03-22T04:30:45.622Z,100663.25
2023-03-22T04:31:18.412Z,100657.00
2023-03-22T04:31:49.987Z,100658.56
2023-03-22T04:32:24.595Z,100664.03
2023-03-22T04:32:56.505Z,100664.03
2023-03-22T04:33:27.937Z,100664.03
2023-03-22T04:34:00.395Z,100665.97
2023-03-22T04:34:31.985Z,100661.31
2023-03-22T04:35:04.248Z,100664.09
2023-03-22T04:35:35.929Z,100667.19
2023-03-22T04:36:10.241Z,100668.38
2023-03-22T04:36:41.814Z,100660.22
2023-03-22T04:37:14.909Z,100659.44
2023-03-22T04:37:46.423Z,100653.22
2023-03-22T04:38:18.297Z,100656.34
2023-03-22T04:38:51.100Z,100650.13
2023-03-22T04:39:22.543Z,100655.56
2023-03-22T04:39:54.243Z,100652.44
2023-03-22T04:40:26.375Z,100647.00
2023-03-22T04:40:57.926Z,100643.84
2023-03-22T04:41:30.305Z,100642.34
2023-03-22T04:42:02.162Z,100643.13
2023-03-22T04:42:33.665Z,100647.81
2023-03-22T04:43:05.278Z,100648.19
2023-03-22T04:43:39.267Z,100654.84
2023-03-22T04:44:10.793Z,100659.06
2023-03-22T04:44:42.194Z,100643.16
2023-03-22T04:45:14.322Z,100655.97
2023-03-22T04:45:46.189Z,100651.31
2023-03-22T04:46:17.714Z,100650.53
2023-03-22T04:46:49.302Z,100651.31
2023-03-22T04:47:20.766Z,100648.56
2023-03-22T04:47:52.537Z,100655.19
2023-03-22T04:48:27.888Z,100647.81
2023-03-22T04:48:59.395Z,100649.38
2023-03-22T04:49:31.420Z,100653.63
2023-03-22T04:50:02.829Z,100644.69
2023-03-22T04:50:34.510Z,100643.91
2023-03-22T04:51:07.912Z,100649.75
2023-03-22T04:51:39.393Z,100652.47
2023-03-22T04:52:11.236Z,100652.47
2023-03-22T04:52:42.712Z,100645.09
2023-03-22T04:53:14.196Z,100652.47
2023-03-22T04:53:45.956Z,100653.63
2023-03-22T04:54:17.322Z,100647.78
2023-03-22T04:54:48.725Z,100658.72
2023-03-22T04:55:20.281Z,100650.91
2023-03-22T04:55:51.651Z,100643.91
2023-03-22T04:56:23.102Z,100646.22
2023-03-22T04:56:54.498Z,100638.84
2023-03-22T04:57:25.961Z,100640.81
2023-03-22T04:57:57.416Z,100636.91
2023-03-22T04:58:28.895Z,100637.69
2023-03-22T04:59:00.775Z,100646.22
2023-03-22T04:59:32.257Z,100636.91
2023-03-22T05:00:08.238Z,100648.59
2023-03-22T05:00:42.311Z,100641.22
2023-03-22T05:01:16.745Z,100647.47
2023-03-22T05:01:49.511Z,100642.03
2023-03-22T05:02:21.189Z,100644.38
2023-03-22T05:02:53.006Z,100642.81
2023-03-22T05:03:24.738Z,100642.44
2023-03-22T05:03:56.200Z,100640.44
2023-03-22T05:04:28.209Z,100637.38
2023-03-22T05:04:59.643Z,100635.78
2023-03-22T05:05:31.242Z,100632.28
2023-03-22T05:06:06.484Z,100642.06
2023-03-22T05:06:37.931Z,100641.28
2023-03-22T05:07:09.315Z,100637.78
2023-03-22T05:07:41.459Z,100641.28
2023-03-22T05:09:03.742Z,100643.22
2023-03-22T05:09:35.230Z,100628.84
2023-03-22T05:10:07.158Z,100634.28
2023-03-22T05:10:41.723Z,100635.00
2023-03-22T05:11:16.552Z,100630.00
2023-03-22T05:11:48.206Z,100635.44
2023-03-22T05:12:19.679Z,100635.44
2023-03-22T05:12:51.060Z,100632.28
2023-03-22T05:13:24.390Z,100633.84
2023-03-22T05:13:55.879Z,100635.78
2023-03-22T05:14:27.427Z,100629.53
2023-03-22T05:15:00.956Z,100631.09
2023-03-22T05:15:32.606Z,100635.00
2023-03-22T05:16:05.745Z,100631.88
2023-03-22T05:16:40.514Z,100629.94
2023-03-22T05:17:11.994Z,100627.59
2023-03-22T05:17:43.389Z,100629.16
2023-03-22T05:18:16.483Z,100630.72
2023-03-22T05:18:49.817Z,100632.28
2023-03-22T05:19:22.413Z,100630.72
2023-03-22T05:19:53.773Z,100633.44
2023-03-22T05:20:25.166Z,100626.81
2023-03-22T05:20:57.403Z,100629.09
2023-03-22T05:21:30.206Z,100633.41
2023-03-22T05:22:01.986Z,100631.47
2023-03-22T05:22:34.639Z,100633.81
2023-03-22T05:23:06.301Z,100629.53
2023-03-22T05:23:37.709Z,100630.31
2023-03-22T05:24:09.500Z,100625.59
2023-03-22T05:25:30.202Z,100632.25
2023-03-22T05:26:04.309Z,100629.47
2023-03-22T05:26:37.972Z,100630.69
2023-03-22T05:27:10.803Z,100632.63
2023-03-22T05:27:42.207Z,100627.50
2023-03-22T05:28:14.911Z,100628.31
2023-03-22T05:28:46.686Z,100624.78
2023-03-22T05:29:18.074Z,100622.84
2023-03-22T05:29:49.679Z,100628.69
2023-03-22T05:30:21.666Z,100622.44
2023-03-22T05:30:55.301Z,100624.78
2023-03-22T05:31:28.803Z,100619.69
2023-03-22T05:32:00.368Z,100629.00
2023-03-22T05:32:31.861Z,100631.38
2023-03-22T05:33:04.740Z,100630.22
2023-03-22T05:33:36.411Z,100625.16
2023-03-22T05:34:08.086Z,100627.88
2023-03-22T05:34:42.792Z,100625.16
2023-03-22T05:35:14.214Z,100619.69
2023-03-22T05:35:45.787Z,100620.06
2023-03-22T05:36:19.401Z,100620.50
2023-03-22T05:36:51.536Z,100613.47
2023-03-22T05:37:23.067Z,100614.63
2023-03-22T05:37:54.475Z,100620.84
2023-03-22T05:38:25.952Z,100612.69
2023-03-22T05:38:57.658Z,100613.47
2023-03-22T05:39:29.370Z,100623.56
2023-03-22T05:40:00.966Z,100618.13
2023-03-22T05:40:32.932Z,100613.09
2023-03-22T05:41:04.530Z,100615.41
2023-03-22T05:41:36.883Z,100614.25
2023-03-22T05:42:08.578Z,100616.97
2023-03-22T05:42:40.438Z,100611.13
2023-03-22T05:43:12.652Z,100621.63
2023-03-22T05:43:44.144Z,100611.53
2023-03-22T05:44:15.703Z,100626.69
2023-03-22T05:44:47.118Z,100621.63
2023-03-22T05:45:19.222Z,100624.34
2023-03-22T05:45:50.936Z,100622.78
2023-03-22T05:46:22.505Z,100622.78
2023-03-22T05:46:53.959Z,100621.25
2023-03-22T05:47:25.518Z,100632.91
2023-03-22T05:47:56.922Z,100622.03
2023-03-22T05:48:28.371Z,100616.97
2023-03-22T05:48:59.739Z,100619.69
2023-03-22T05:49:31.134Z,100622.41
2023-03-22T05:50:02.742Z,100612.25
2023-03-22T05:50:34.774Z,100622.78
2023-03-22T05:51:09.244Z,100618.50
2023-03-22T05:51:42.546Z,100617.69
2023-03-22T05:52:14.167Z,100609.53
2023-03-22T05:52:45.961Z,100611.91
2023-03-22T05:53:17.369Z,100610.69
2023-03-22T05:53:49.166Z,100605.63
2023-03-22T05:54:20.737Z,100604.88
2023-03-22T05:54:52.205Z,100604.47
2023-03-22T05:55:23.663Z,100606.81
2023-03-22T05:56:47.261Z,100607.97
2023-03-22T05:57:18.949Z,100606.81
2023-03-22T05:57:52.716Z,100613.84
2023-03-22T05:58:24.258Z,100604.09
2023-03-22T05:58:55.675Z,100601.03
2023-03-22T05:59:27.538Z,100597.09
2023-03-22T05:59:59.486Z,100597.09
2023-03-22T06:00:32.363Z,100602.97
2023-03-22T06:01:16.387Z,100602.97
2023-03-22T06:01:47.821Z,100600.25
2023-03-22T06:02:19.976Z,100600.25
2023-03-22T06:02:56.562Z,100604.09
2023-03-22T06:03:28.391Z,100608.75
2023-03-22T06:03:59.878Z,100591.66
2023-03-22T06:04:31.296Z,100606.47
2023-03-22T06:05:02.633Z,100608.75
2023-03-22T06:05:36.498Z,100607.19
2023-03-22T06:06:10.617Z,100605.69
2023-03-22T06:06:42.095Z,100598.66
2023-03-22T06:07:14.755Z,100604.09
2023-03-22T06:07:46.149Z,100603.69
2023-03-22T06:08:17.626Z,100605.25
2023-03-22T06:08:49.067Z,100600.59
2023-03-22T06:09:20.501Z,100609.97
2023-03-22T06:09:51.945Z,100607.97
2023-03-22T06:10:24.260Z,100605.31
2023-03-22T06:10:55.910Z,100600.59
2023-03-22T06:11:27.371Z,100604.53
2023-03-22T06:11:59.484Z,100611.91
2023-03-22T06:12:31.377Z,100606.09
2023-03-22T06:13:02.946Z,100597.94
2023-03-22T06:13:34.510Z,100605.72
2023-03-22T06:14:05.977Z,100601.44
2023-03-22T06:14:37.641Z,100596.00
2023-03-22T06:15:09.947Z,100602.59
2023-03-22T06:15:41.404Z,100600.28
2023-03-22T06:16:13.019Z,100601.44
2023-03-22T06:16:44.517Z,100603.38
2023-03-22T06:17:16.557Z,100605.31
2023-03-22T06:17:48.596Z,100605.31
2023-03-22T06:18:20.198Z,100601.03
2023-03-22T06:18:51.587Z,100598.72
2023-03-22T06:19:23.686Z,100607.25
2023-03-22T06:19:55.206Z,100608.03
2023-03-22T06:20:26.811Z,100607.66
2023-03-22T06:20:58.393Z,100605.72
2023-03-22T06:21:29.883Z,100608.81
2023-03-22T06:22:01.357Z,100618.56
2023-03-22T06:22:33.367Z,100603.75
2023-03-22T06:23:05.416Z,100608.81
2023-03-22T06:23:36.856Z,100614.25
2023-03-22T06:24:08.397Z,100608.81
2023-03-22T06:24:42.350Z,100596.78
2023-03-22T06:25:14.925Z,100608.81
2023-03-22T06:25:46.347Z,100601.44
2023-03-22T06:26:17.741Z,100603.75
2023-03-22T06:26:49.170Z,100611.53
2023-03-22T06:27:22.039Z,100604.94
2023-03-22T06:27:53.540Z,100609.97
2023-03-22T06:28:29.700Z,100606.88
2023-03-22T06:29:03.482Z,100609.25
2023-03-22T06:29:35.628Z,100609.66
2023-03-22T06:30:08.010Z,100614.31
2023-03-22T06:30:39.841Z,100614.31
2023-03-22T06:31:11.490Z,100607.72
2023-03-22T06:31:42.902Z,100607.34
2023-03-22T06:32:14.309Z,100605.41
2023-03-22T06:32:45.935Z,100612.06
2023-03-22T06:33:17.344Z,100608.13
2023-03-22T06:33:48.974Z,100611.69
2023-03-22T06:34:20.599Z,100613.25
2023-03-22T06:34:52.988Z,100609.78
2023-03-22T06:35:24.376Z,100605.94
2023-03-22T06:35:55.883Z,100604.78
2023-03-22T06:36:27.419Z,100600.50
2023-03-22T06:36:59.371Z,100609.06
2023-03-22T06:37:31.051Z,100600.53
2023-03-22T06:38:02.554Z,100605.63
2023-03-22T06:38:33.961Z,100606.41
2023-03-22T06:39:05.415Z,100600.59